Time;durP1;ratioP1;P1;durP2;ratioP2;P2;SDS_P1;SDS_P2;PMS_P1;PMS_P2;Temp;Humidity;BMP_temperature;BMP_pressure;BME280_temperature;BME280_humidity;BME280_pressure;Samples;Min_cycle;Max_cycle;Signal;HPM_P1;HPM_P2
2023/06/06 00:01:17;;;;;;;12.27;11.17;;;11.20;99.90;;;;;;5074933;28;20256;-74
2023/06/06 00:03:45;;;;;;;12.33;11.03;;;11.10;99.90;;;;;;5074780;28;20664;-74
2023/06/06 00:06:13;;;;;;;14.80;11.80;;;11.10;99.90;;;;;;5074659;28;20284;-74
2023/06/06 00:08:42;;;;;;;14.23;11.80;;;11.00;99.90;;;;;;5074788;28;20193;-74
2023/06/06 00:11:10;;;;;;;12.83;11.27;;;11.00;99.90;;;;;;5074571;28;20197;-74
2023/06/06 00:13:37;;;;;;;12.53;11.33;;;11.00;99.90;;;;;;5074996;28;20237;-74
2023/06/06 00:16:04;;;;;;;13.87;11.20;;;10.90;99.90;;;;;;5074924;28;20212;-73
2023/06/06 00:18:31;;;;;;;12.33;10.67;;;10.80;99.90;;;;;;5074567;28;20718;-74
2023/06/06 00:20:59;;;;;;;12.03;10.83;;;10.70;99.90;;;;;;5073934;28;20193;-74
2023/06/06 00:23:26;;;;;;;12.33;11.10;;;10.90;99.90;;;;;;5074552;28;20197;-73
2023/06/06 00:25:53;;;;;;;12.63;11.43;;;10.70;99.90;;;;;;5074487;28;20730;-74
2023/06/06 00:28:20;;;;;;;12.90;10.90;;;10.70;99.90;;;;;;5074662;28;20201;-73
2023/06/06 00:30:47;;;;;;;13.37;11.40;;;10.60;99.90;;;;;;5074530;28;20193;-73
2023/06/06 00:33:13;;;;;;;13.10;11.80;;;10.50;99.90;;;;;;5074380;28;20221;-74
2023/06/06 00:35:40;;;;;;;13.60;11.57;;;10.40;99.90;;;;;;5074499;28;20286;-74
2023/06/06 00:38:08;;;;;;;12.87;11.57;;;10.40;99.90;;;;;;5074179;28;20258;-73
2023/06/06 00:40:35;;;;;;;13.07;11.77;;;10.40;99.90;;;;;;5073920;28;20200;-74
2023/06/06 00:43:01;;;;;;;12.83;11.53;;;10.40;99.90;;;;;;5074135;28;20603;-73
2023/06/06 00:45:28;;;;;;;12.17;10.97;;;10.70;99.90;;;;;;5074216;28;20246;-73
2023/06/06 00:47:54;;;;;;;13.17;11.87;;;10.80;99.90;;;;;;5074115;28;20193;-73
2023/06/06 00:50:23;;;;;;;12.07;10.87;;;10.80;99.90;;;;;;5073952;28;20201;-74
2023/06/06 00:52:50;;;;;;;12.17;10.97;;;10.60;99.90;;;;;;5073673;28;20282;-73
2023/06/06 00:55:20;;;;;;;12.33;11.03;;;10.40;99.90;;;;;;5074057;28;20193;-74
2023/06/06 00:57:48;;;;;;;14.13;11.93;;;10.30;99.90;;;;;;5073947;28;20192;-74
2023/06/06 01:00:15;;;;;;;12.80;11.50;;;10.30;99.90;;;;;;5073880;28;20197;-74
2023/06/06 01:02:43;;;;;;;12.33;11.03;;;10.20;99.90;;;;;;5073728;28;20227;-74
2023/06/06 01:05:11;;;;;;;13.20;11.90;;;10.20;99.90;;;;;;5073652;28;20266;-73
2023/06/06 01:07:38;;;;;;;13.40;12.20;;;10.40;99.90;;;;;;5073796;28;20204;-73
2023/06/06 01:10:06;;;;;;;12.73;11.53;;;10.40;99.90;;;;;;5073720;28;20204;-73
2023/06/06 01:12:43;;;;;;;12.67;11.37;;;10.50;99.90;;;;;;5073514;28;20270;-74
2023/06/06 01:15:15;;;;;;;12.50;11.20;;;10.50;99.90;;;;;;5073526;28;20199;-73
2023/06/06 01:17:46;;;;;;;12.30;10.97;;;10.50;99.90;;;;;;5073267;28;20193;-74
2023/06/06 01:20:13;;;;;;;17.13;11.90;;;10.20;99.90;;;;;;5073275;28;20201;-74
2023/06/06 01:22:43;;;;;;;12.93;11.63;;;10.20;99.90;;;;;;5073389;28;20192;-74
2023/06/06 01:25:12;;;;;;;11.90;10.70;;;10.30;99.90;;;;;;5073433;28;20197;-74
2023/06/06 01:27:39;;;;;;;12.67;11.37;;;10.20;99.90;;;;;;5073273;28;20247;-74
2023/06/06 01:30:07;;;;;;;13.43;11.80;;;10.30;99.90;;;;;;5073061;28;20242;-73
2023/06/06 01:32:41;;;;;;;13.23;11.80;;;10.30;99.90;;;;;;5072218;28;20718;-74
2023/06/06 01:35:15;;;;;;;13.17;11.87;;;10.10;99.90;;;;;;5073292;28;20201;-74
2023/06/06 01:37:48;;;;;;;13.83;12.43;;;10.20;99.90;;;;;;5073147;28;20208;-74
2023/06/06 01:40:18;;;;;;;15.07;11.63;;;9.90;99.90;;;;;;5073177;28;20207;-74
2023/06/06 01:42:47;;;;;;;14.13;12.57;;;9.80;99.90;;;;;;5072902;28;20201;-73
2023/06/06 01:45:16;;;;;;;13.57;12.00;;;9.60;99.90;;;;;;5073256;28;20254;-74
2023/06/06 01:47:43;;;;;;;13.70;12.33;;;9.60;99.90;;;;;;5073113;28;20200;-73
2023/06/06 01:50:11;;;;;;;13.47;12.17;;;9.80;99.90;;;;;;5073030;28;20201;-74
2023/06/06 01:52:38;;;;;;;13.17;11.90;;;9.90;99.90;;;;;;5072666;28;20221;-74
2023/06/06 01:55:07;;;;;;;13.00;11.80;;;10.00;99.90;;;;;;5072807;28;20243;-73
2023/06/06 01:57:34;;;;;;;13.83;12.37;;;10.00;99.90;;;;;;5072975;28;20197;-74
2023/06/06 02:00:03;;;;;;;13.30;12.00;;;9.90;99.90;;;;;;5072826;28;20678;-74
2023/06/06 02:02:30;;;;;;;15.00;12.53;;;9.70;99.90;;;;;;5072842;28;20204;-74
2023/06/06 02:04:57;;;;;;;14.77;13.27;;;9.70;99.90;;;;;;5072580;28;20196;-74
2023/06/06 02:07:24;;;;;;;15.30;13.20;;;9.60;99.90;;;;;;5072693;28;20750;-74
2023/06/06 02:09:51;;;;;;;14.77;13.27;;;9.60;99.90;;;;;;5072638;28;20326;-74
2023/06/06 02:12:19;;;;;;;14.70;13.20;;;9.60;99.90;;;;;;5072662;28;20229;-74
2023/06/06 02:14:46;;;;;;;15.20;13.77;;;9.60;99.90;;;;;;5072740;28;20197;-74
2023/06/06 02:17:13;;;;;;;14.80;13.17;;;9.60;99.90;;;;;;5072773;28;20262;-74
2023/06/06 02:19:39;;;;;;;15.77;13.97;;;9.60;99.90;;;;;;5072616;28;20201;-74
2023/06/06 02:22:07;;;;;;;16.60;13.07;;;9.50;99.90;;;;;;5072219;28;20197;-73
2023/06/06 02:24:33;;;;;;;14.43;12.93;;;9.50;99.90;;;;;;5072788;28;20251;-73
2023/06/06 02:27:01;;;;;;;17.17;13.27;;;9.50;99.90;;;;;;5072702;28;20207;-74
2023/06/06 02:29:29;;;;;;;15.77;14.17;;;9.50;99.90;;;;;;5072626;28;20567;-74
2023/06/06 02:31:57;;;;;;;16.00;14.40;;;9.40;99.90;;;;;;5072379;28;20656;-74
2023/06/06 02:34:24;;;;;;;15.97;14.30;;;9.40;99.90;;;;;;5072610;28;20196;-74
2023/06/06 02:36:53;;;;;;;15.37;13.97;;;9.30;99.90;;;;;;5072329;28;20197;-73
2023/06/06 02:39:20;;;;;;;16.93;15.23;;;9.30;99.90;;;;;;5072287;28;20529;-74
2023/06/06 02:41:46;;;;;;;16.30;14.70;;;9.50;99.90;;;;;;5072332;28;20254;-73
2023/06/06 02:44:13;;;;;;;16.53;14.83;;;9.60;99.90;;;;;;5074222;28;20197;-74
2023/06/06 02:46:41;;;;;;;16.20;14.50;;;9.60;99.90;;;;;;5076438;28;20269;-74
2023/06/06 02:49:07;;;;;;;16.37;14.43;;;9.60;99.90;;;;;;5076201;28;20560;-73
2023/06/06 02:51:35;;;;;;;15.40;13.90;;;9.60;99.90;;;;;;5076093;28;20204;-74
2023/06/06 02:54:02;;;;;;;15.80;14.30;;;9.60;99.90;;;;;;5075965;28;20232;-74
2023/06/06 02:56:29;;;;;;;15.53;14.00;;;9.70;99.90;;;;;;5076200;28;20197;-73
2023/06/06 02:58:55;;;;;;;16.33;14.50;;;9.60;99.90;;;;;;5076109;28;20193;-74
2023/06/06 03:01:22;;;;;;;16.97;14.70;;;9.40;99.90;;;;;;5075947;28;20193;-74
2023/06/06 03:03:50;;;;;;;17.27;15.17;;;9.20;99.90;;;;;;5075813;28;20197;-73
2023/06/06 03:06:17;;;;;;;15.80;14.30;;;9.10;99.90;;;;;;5076089;28;20205;-74
2023/06/06 03:08:43;;;;;;;16.43;14.67;;;9.00;99.90;;;;;;5076056;28;20197;-73
2023/06/06 03:11:10;;;;;;;16.77;15.07;;;9.10;99.90;;;;;;5075679;28;20656;-74
2023/06/06 03:13:37;;;;;;;16.23;14.63;;;9.30;99.90;;;;;;5075664;28;20231;-74
2023/06/06 03:16:04;;;;;;;16.57;14.90;;;9.40;99.90;;;;;;5075819;28;20197;-74
2023/06/06 03:18:31;;;;;;;16.40;14.57;;;9.40;99.90;;;;;;5075687;28;20242;-74
2023/06/06 03:20:58;;;;;;;16.30;14.70;;;9.40;99.90;;;;;;5075749;28;20193;-74
2023/06/06 03:23:25;;;;;;;16.70;15.10;;;9.50;99.90;;;;;;5075754;28;20246;-74
2023/06/06 03:25:53;;;;;;;15.30;13.70;;;9.40;99.90;;;;;;5075598;28;20247;-73
2023/06/06 03:28:21;;;;;;;16.63;14.50;;;9.50;99.90;;;;;;5075614;28;20243;-74
2023/06/06 03:30:47;;;;;;;15.60;14.03;;;9.40;99.90;;;;;;5075456;28;20201;-74
2023/06/06 03:33:15;;;;;;;15.37;13.87;;;9.40;99.90;;;;;;5075275;28;20298;-73
2023/06/06 03:35:42;;;;;;;15.77;14.17;;;9.30;99.90;;;;;;5075481;28;20198;-73
2023/06/06 03:38:10;;;;;;;16.83;15.03;;;9.10;99.90;;;;;;5075450;28;20197;-74
2023/06/06 03:40:37;;;;;;;16.07;14.57;;;9.00;99.90;;;;;;5075369;28;20243;-74
2023/06/06 03:43:04;;;;;;;15.43;14.03;;;9.00;99.90;;;;;;5075205;28;20208;-73
2023/06/06 03:45:30;;;;;;;16.90;15.10;;;9.00;99.90;;;;;;5075207;28;20204;-73
2023/06/06 03:47:57;;;;;;;17.33;15.60;;;9.20;99.90;;;;;;5075331;28;20197;-74
2023/06/06 03:50:23;;;;;;;17.00;15.20;;;9.30;99.90;;;;;;5075273;28;20205;-74
2023/06/06 03:52:50;;;;;;;17.27;15.57;;;9.20;99.90;;;;;;5074908;28;20303;-74
2023/06/06 03:55:18;;;;;;;17.40;15.60;;;9.20;99.90;;;;;;5074053;28;20805;-74
2023/06/06 03:57:45;;;;;;;16.70;15.00;;;9.20;99.90;;;;;;5074989;28;20223;-74
2023/06/06 04:00:13;;;;;;;16.70;14.90;;;9.20;99.90;;;;;;5074841;28;20204;-73
2023/06/06 04:02:40;;;;;;;18.03;16.23;;;9.40;99.90;;;;;;5074793;28;20664;-74
2023/06/06 04:05:08;;;;;;;15.83;13.87;;;9.50;99.90;;;;;;5074697;28;20854;-73
2023/06/06 04:07:35;;;;;;;15.20;13.73;;;9.60;99.90;;;;;;5074786;28;20196;-74
2023/06/06 04:10:02;;;;;;;15.20;13.80;;;9.70;99.90;;;;;;5074623;28;20528;-74
2023/06/06 04:12:30;;;;;;;15.83;14.23;;;9.70;99.90;;;;;;5074587;28;20197;-74
2023/06/06 04:14:57;;;;;;;15.77;14.17;;;9.80;99.90;;;;;;5074864;28;20598;-74
2023/06/06 04:17:25;;;;;;;15.13;13.53;;;9.80;99.90;;;;;;5074725;28;20196;-74
2023/06/06 04:19:51;;;;;;;15.50;13.90;;;9.90;99.90;;;;;;5074748;28;20197;-74
2023/06/06 04:22:20;;;;;;;15.23;13.70;;;10.00;99.90;;;;;;5074683;28;20193;-74
2023/06/06 04:24:47;;;;;;;14.07;12.77;;;10.10;99.90;;;;;;5074494;28;20246;-75
2023/06/06 04:27:16;;;;;;;14.33;12.93;;;10.20;99.90;;;;;;5074427;28;20649;-73
2023/06/06 04:29:44;;;;;;;13.97;12.57;;;10.00;99.90;;;;;;5074452;28;20232;-74
2023/06/06 04:32:13;;;;;;;15.87;13.40;;;10.10;99.90;;;;;;5074577;28;20197;-73
2023/06/06 04:34:41;;;;;;;14.43;13.03;;;10.20;99.90;;;;;;5074225;28;20225;-74
2023/06/06 04:37:08;;;;;;;13.30;12.00;;;10.20;99.90;;;;;;5074097;28;20215;-73
2023/06/06 04:39:36;;;;;;;13.00;11.77;;;10.30;99.90;;;;;;5073842;28;20205;-73
2023/06/06 04:42:05;;;;;;;12.90;11.70;;;10.40;99.90;;;;;;5074086;28;20198;-74
2023/06/06 04:44:32;;;;;;;12.60;11.30;;;10.50;99.90;;;;;;5074238;28;20209;-73
2023/06/06 04:47:03;;;;;;;12.73;11.50;;;10.60;99.90;;;;;;5074156;28;20218;-74
2023/06/06 04:49:35;;;;;;;13.17;11.83;;;10.70;99.90;;;;;;5074133;28;20254;-74
2023/06/06 04:52:05;;;;;;;12.77;11.27;;;10.80;99.90;;;;;;5074005;28;20652;-73
2023/06/06 04:54:33;;;;;;;13.67;10.93;;;10.90;99.90;;;;;;5073581;28;20236;-74
2023/06/06 04:57:00;;;;;;;12.03;10.93;;;11.00;99.90;;;;;;5073899;28;20205;-74
2023/06/06 04:59:27;;;;;;;12.00;10.57;;;11.10;99.90;;;;;;5073970;28;20207;-73
2023/06/06 05:01:55;;;;;;;11.90;10.60;;;11.20;99.90;;;;;;5073779;28;20196;-74
2023/06/06 05:04:23;;;;;;;11.77;10.57;;;11.30;99.90;;;;;;5073491;28;20197;-74
2023/06/06 05:06:50;;;;;;;13.43;10.13;;;11.30;99.90;;;;;;5073435;28;20198;-73
2023/06/06 05:09:17;;;;;;;11.97;10.77;;;11.40;99.90;;;;;;5081282;28;20177;-74
2023/06/06 05:11:48;;;;;;;13.13;11.07;;;11.40;99.90;;;;;;5073610;28;20203;-73
2023/06/06 05:14:15;;;;;;;11.93;10.87;;;11.50;99.90;;;;;;5073526;28;20235;-74
2023/06/06 05:16:46;;;;;;;11.40;10.27;;;11.50;99.90;;;;;;5073581;28;20218;-73
2023/06/06 05:19:13;;;;;;;11.83;10.73;;;11.60;99.90;;;;;;5073435;28;20197;-73
2023/06/06 05:21:41;;;;;;;13.17;10.53;;;11.60;99.90;;;;;;5073223;28;20653;-74
2023/06/06 05:24:08;;;;;;;12.53;10.67;;;11.70;99.90;;;;;;5073415;28;20263;-73
2023/06/06 05:26:34;;;;;;;12.37;11.07;;;11.90;99.90;;;;;;5073427;28;20223;-73
2023/06/06 05:29:01;;;;;;;11.87;10.77;;;12.10;99.90;;;;;;5073172;28;20565;-74
2023/06/06 05:31:28;;;;;;;10.77;9.67;;;12.20;99.90;;;;;;5073137;28;20197;-74
2023/06/06 05:33:56;;;;;;;13.23;10.70;;;12.30;99.90;;;;;;5073038;28;20251;-74
2023/06/06 05:36:22;;;;;;;12.30;9.90;;;12.40;99.90;;;;;;5073323;28;20205;-73
2023/06/06 05:38:50;;;;;;;12.50;10.40;;;12.40;99.90;;;;;;5072998;28;20649;-73
2023/06/06 05:41:18;;;;;;;11.27;10.17;;;12.60;99.90;;;;;;5072826;28;20744;-74
2023/06/06 05:43:45;;;;;;;11.03;10.00;;;12.80;99.90;;;;;;5072982;28;20197;-74
2023/06/06 05:46:12;;;;;;;12.67;10.40;;;13.00;99.90;;;;;;5072884;28;20204;-74
2023/06/06 05:48:39;;;;;;;11.50;9.73;;;13.10;99.90;;;;;;5072667;28;20270;-75
2023/06/06 05:51:07;;;;;;;11.20;10.03;;;13.20;99.90;;;;;;5072699;28;20645;-75
2023/06/06 05:53:33;;;;;;;10.87;9.80;;;13.30;99.90;;;;;;5072475;28;20329;-74
2023/06/06 05:56:02;;;;;;;12.17;9.83;;;13.50;99.90;;;;;;5072736;28;20193;-74
2023/06/06 05:58:28;;;;;;;12.57;10.60;;;13.60;99.90;;;;;;5072515;28;20606;-75
2023/06/06 06:00:55;;;;;;;11.57;9.73;;;13.70;99.90;;;;;;5072704;28;20197;-74
2023/06/06 06:03:22;;;;;;;10.20;9.20;;;13.80;99.90;;;;;;5073076;28;20201;-74
2023/06/06 06:05:49;;;;;;;10.10;9.20;;;14.00;99.90;;;;;;5072976;28;20205;-74
2023/06/06 06:08:17;;;;;;;10.33;9.33;;;14.20;99.90;;;;;;5072826;28;20201;-74
2023/06/06 06:10:44;;;;;;;9.57;8.60;;;14.40;99.90;;;;;;5072730;28;20193;-74
2023/06/06 06:13:12;;;;;;;7.40;6.70;;;14.60;99.90;;;;;;5072545;28;20196;-74
2023/06/06 06:15:39;;;;;;;6.73;6.03;;;14.80;99.90;;;;;;5072549;28;20201;-74
2023/06/06 06:18:05;;;;;;;6.77;5.90;;;15.10;99.90;;;;;;5072340;28;20259;-75
2023/06/06 06:20:32;;;;;;;5.83;5.23;;;15.30;99.90;;;;;;5072613;28;20607;-74
2023/06/06 06:22:59;;;;;;;6.73;5.03;;;15.50;99.90;;;;;;5072642;28;20239;-74
2023/06/06 06:25:25;;;;;;;5.88;4.72;;;15.60;99.90;;;;;;5072641;28;20223;-75
2023/06/06 06:27:52;;;;;;;5.50;5.00;;;15.70;99.90;;;;;;5072500;28;20545;-74
2023/06/06 06:30:20;;;;;;;5.38;4.88;;;15.80;99.90;;;;;;5078554;28;20203;-73
2023/06/06 06:32:47;;;;;;;5.18;4.68;;;15.90;99.90;;;;;;5073682;28;20228;-74
2023/06/06 06:35:13;;;;;;;5.50;4.70;;;16.00;99.90;;;;;;5072525;28;20220;-75
2023/06/06 06:37:40;;;;;;;5.53;4.53;;;16.10;99.90;;;;;;5072418;28;20193;-74
2023/06/06 06:40:09;;;;;;;6.43;4.57;;;16.20;99.90;;;;;;5072307;28;20197;-74
2023/06/06 06:42:39;;;;;;;6.55;4.70;;;16.20;99.90;;;;;;5072350;28;20266;-74
2023/06/06 06:45:07;;;;;;;4.93;4.43;;;16.20;99.90;;;;;;5072491;28;20204;-74
2023/06/06 06:47:36;;;;;;;4.80;4.30;;;16.30;99.90;;;;;;5072487;28;20201;-73
2023/06/06 06:50:04;;;;;;;5.35;4.50;;;16.40;99.90;;;;;;5072227;28;20672;-74
2023/06/06 06:52:33;;;;;;;4.97;4.20;;;16.60;99.90;;;;;;5071948;28;20691;-74
2023/06/06 06:55:01;;;;;;;5.22;4.30;;;16.50;99.90;;;;;;5072080;28;20231;-74
2023/06/06 06:57:28;;;;;;;4.55;4.15;;;16.60;99.90;;;;;;5072310;28;20193;-78
2023/06/06 06:59:55;;;;;;;5.15;4.10;;;16.80;99.90;;;;;;5072363;28;20381;-77
2023/06/06 07:02:23;;;;;;;7.43;4.30;;;16.70;99.90;;;;;;5072304;28;20607;-77
2023/06/06 07:04:51;;;;;;;4.65;4.15;;;16.60;99.90;;;;;;5072115;28;20284;-77
2023/06/06 07:07:18;;;;;;;6.22;4.00;;;16.60;99.90;;;;;;5072184;28;20243;-77
2023/06/06 07:09:44;;;;;;;4.47;4.07;;;16.60;99.90;;;;;;5072071;28;20197;-77
2023/06/06 07:12:11;;;;;;;4.85;4.38;;;16.80;99.90;;;;;;5072026;28;20251;-77
2023/06/06 07:14:38;;;;;;;4.90;4.40;;;16.90;99.90;;;;;;5071915;28;20282;-77
2023/06/06 07:17:05;;;;;;;4.28;3.88;;;17.00;99.90;;;;;;5072263;28;20205;-77
2023/06/06 07:19:32;;;;;;;4.65;3.90;;;17.10;99.90;;;;;;5072123;28;20224;-78
2023/06/06 07:22:00;;;;;;;4.18;3.85;;;17.20;99.90;;;;;;5072286;28;20678;-77
2023/06/06 07:24:27;;;;;;;8.55;4.78;;;17.20;99.90;;;;;;5072085;28;20197;-78
2023/06/06 07:26:53;;;;;;;4.78;3.88;;;17.30;99.90;;;;;;5072206;28;20193;-78
2023/06/06 07:29:21;;;;;;;4.90;4.50;;;17.40;99.90;;;;;;5071787;28;20201;-78
2023/06/06 07:31:48;;;;;;;7.78;4.28;;;17.30;99.90;;;;;;5074480;28;20208;-79
2023/06/06 07:34:15;;;;;;;5.75;4.10;;;17.30;99.90;;;;;;5075579;28;20569;-79
2023/06/06 07:36:41;;;;;;;5.30;4.47;;;17.40;99.90;;;;;;5075172;28;20196;-79
2023/06/06 07:39:09;;;;;;;4.80;4.40;;;17.30;99.90;;;;;;5075424;28;20201;-79
2023/06/06 07:41:36;;;;;;;5.50;4.65;;;17.50;99.90;;;;;;5075566;28;20197;-76
2023/06/06 07:44:03;;;;;;;6.00;4.57;;;17.60;99.90;;;;;;5075306;28;20246;-79
2023/06/06 07:46:29;;;;;;;4.60;4.20;;;17.40;99.90;;;;;;5075156;28;20714;-80
2023/06/06 07:48:56;;;;;;;5.30;4.47;;;17.70;99.90;;;;;;5075270;28;20197;-79
2023/06/06 07:51:23;;;;;;;5.28;4.38;;;18.00;99.90;;;;;;5075217;28;20197;-80
2023/06/06 07:53:49;;;;;;;4.85;4.35;;;18.00;99.90;;;;;;5074983;28;20362;-79
2023/06/06 07:56:18;;;;;;;6.20;4.13;;;18.30;99.90;;;;;;5075134;28;20560;-79
2023/06/06 07:58:51;;;;;;;5.68;3.60;;;18.30;99.90;;;;;;5075137;28;20197;-78
2023/06/06 08:01:19;;;;;;;4.90;3.80;;;18.10;99.90;;;;;;5075251;28;20632;-79
2023/06/06 08:03:49;;;;;;;3.75;3.40;;;18.30;99.90;;;;;;5075161;28;20246;-79
2023/06/06 08:06:17;;;;;;;4.10;3.70;;;18.20;99.90;;;;;;5075156;28;20284;-78
2023/06/06 08:08:44;;;;;;;4.70;3.90;;;18.30;99.90;;;;;;5075199;28;20597;-78
2023/06/06 08:11:10;;;;;;;4.00;3.60;;;18.40;99.90;;;;;;5074891;28;20205;-79
2023/06/06 08:13:38;;;;;;;5.55;3.92;;;18.90;99.90;;;;;;5074791;28;20292;-79
2023/06/06 08:16:05;;;;;;;3.80;3.22;;;19.10;99.90;;;;;;5074742;28;20254;-80
2023/06/06 08:18:32;;;;;;;5.03;3.88;;;19.50;99.90;;;;;;5074693;28;20200;-81
2023/06/06 08:20:58;;;;;;;4.70;3.33;;;19.70;99.90;;;;;;5075130;28;20251;-79
2023/06/06 08:23:25;;;;;;;6.57;3.88;;;19.50;99.90;;;;;;5075050;28;20197;-80
2023/06/06 08:25:55;;;;;;;4.43;3.38;;;19.50;99.90;;;;;;5074661;28;20193;-76
2023/06/06 08:28:22;;;;;;;5.57;3.95;;;19.80;99.90;;;;;;5074868;28;20193;-81
2023/06/06 08:30:51;;;;;;;5.45;3.67;;;19.90;99.90;;;;;;5074374;28;20587;-80
2023/06/06 08:33:18;;;;;;;4.25;3.72;;;19.70;99.90;;;;;;5074398;28;20239;-80
2023/06/06 08:35:44;;;;;;;4.60;3.85;;;19.80;99.90;;;;;;5074450;28;20365;-79
2023/06/06 08:38:11;;;;;;;3.85;3.45;;;19.90;99.90;;;;;;5074545;28;20197;-79
2023/06/06 08:40:38;;;;;;;4.88;3.50;;;20.10;99.90;;;;;;5074462;28;20209;-79
2023/06/06 08:43:06;;;;;;;3.63;3.30;;;19.90;99.90;;;;;;5073905;28;20243;-79
2023/06/06 08:45:33;;;;;;;3.80;3.40;;;20.40;99.90;;;;;;5074201;28;20259;-79
2023/06/06 08:48:02;;;;;;;3.00;2.80;;;20.20;99.90;;;;;;5074394;28;20258;-80
2023/06/06 08:50:30;;;;;;;3.40;3.03;;;20.70;99.90;;;;;;5074006;28;20573;-80
2023/06/06 08:53:04;;;;;;;5.25;3.30;;;21.00;99.90;;;;;;5074023;28;20232;-80
2023/06/06 08:55:32;;;;;;;3.67;3.13;;;20.80;99.90;;;;;;5073966;28;20225;-81
2023/06/06 08:57:58;;;;;;;3.70;3.35;;;20.60;99.90;;;;;;5073896;28;20589;-78
2023/06/06 09:00:25;;;;;;;5.25;3.47;;;20.70;99.90;;;;;;5073945;28;20201;-73
2023/06/06 09:02:53;;;;;;;3.40;3.10;;;20.10;99.90;;;;;;5073818;28;20203;-74
2023/06/06 09:05:22;;;;;;;5.53;3.22;;;19.90;99.90;;;;;;5073692;28;20266;-75
2023/06/06 09:07:49;;;;;;;4.35;3.70;;;20.50;99.90;;;;;;5073676;28;20204;-74
2023/06/06 09:10:17;;;;;;;3.78;3.47;;;20.90;99.90;;;;;;5073512;28;20262;-74
2023/06/06 09:12:44;;;;;;;3.70;3.20;;;20.70;99.90;;;;;;5073512;28;20205;-74
2023/06/06 09:15:11;;;;;;;4.35;3.45;;;20.80;99.90;;;;;;5073576;28;20224;-74
2023/06/06 09:17:38;;;;;;;4.95;4.10;;;20.80;99.90;;;;;;5073589;28;20254;-74
2023/06/06 09:20:09;;;;;;;4.40;3.67;;;20.50;99.90;;;;;;5073447;28;20194;-76
2023/06/06 09:22:42;;;;;;;3.45;3.15;;;20.60;99.90;;;;;;5073610;28;20235;-76
2023/06/06 09:25:18;;;;;;;6.80;3.67;;;20.40;99.90;;;;;;5073291;28;20550;-73
2023/06/06 09:27:45;;;;;;;4.85;3.70;;;20.40;99.90;;;;;;5073446;28;20197;-75
2023/06/06 09:30:20;;;;;;;5.63;3.70;;;19.80;99.90;;;;;;5073140;28;20198;-75
2023/06/06 09:32:51;;;;;;;5.43;3.67;;;20.10;99.90;;;;;;5073234;28;20200;-74
2023/06/06 09:35:18;;;;;;;3.88;3.55;;;20.00;99.90;;;;;;5073088;28;20225;-74
2023/06/06 09:37:46;;;;;;;4.65;3.97;;;19.90;99.90;;;;;;5072943;28;20665;-74
2023/06/06 09:40:14;;;;;;;3.92;3.55;;;20.00;99.90;;;;;;5073190;28;20197;-74
2023/06/06 09:42:43;;;;;;;6.43;3.90;;;20.00;99.90;;;;;;5072966;28;20556;-74
2023/06/06 09:45:15;;;;;;;3.90;3.50;;;19.80;99.90;;;;;;5073180;28;20197;-74
2023/06/06 09:47:42;;;;;;;5.30;3.40;;;20.30;99.90;;;;;;5073041;28;20203;-74
2023/06/06 09:50:10;;;;;;;4.20;3.63;;;20.40;99.90;;;;;;5072967;28;20197;-74
2023/06/06 09:52:36;;;;;;;4.13;3.50;;;20.80;99.90;;;;;;5072647;28;20199;-75
2023/06/06 09:55:08;;;;;;;4.95;3.58;;;21.10;99.90;;;;;;5072408;28;20274;-75
2023/06/06 09:57:36;;;;;;;4.28;3.88;;;21.40;99.90;;;;;;5072931;28;20280;-74
2023/06/06 10:00:10;;;;;;;4.97;3.97;;;21.90;99.90;;;;;;5072795;28;20208;-75
2023/06/06 10:02:42;;;;;;;4.07;3.67;;;22.30;99.90;;;;;;5079948;28;20197;-74
2023/06/06 10:05:12;;;;;;;4.60;4.15;;;21.70;99.90;;;;;;5073043;28;20207;-75
2023/06/06 10:07:41;;;;;;;6.30;3.72;;;21.20;99.90;;;;;;5072873;28;20201;-74
2023/06/06 10:10:12;;;;;;;6.63;4.03;;;21.40;99.90;;;;;;5072854;28;20197;-74
2023/06/06 10:12:39;;;;;;;5.80;4.20;;;21.80;99.90;;;;;;5072774;28;20304;-74
2023/06/06 10:15:08;;;;;;;4.85;3.90;;;21.60;99.90;;;;;;5072580;28;20225;-74
2023/06/06 10:17:37;;;;;;;5.63;4.18;;;21.90;99.90;;;;;;5072688;28;20298;-73
2023/06/06 10:20:06;;;;;;;5.53;3.80;;;22.10;99.90;;;;;;5072581;28;20197;-73
2023/06/06 10:22:33;;;;;;;4.25;3.80;;;22.30;99.90;;;;;;5072402;28;20284;-73
2023/06/06 10:25:01;;;;;;;6.53;3.60;;;21.40;99.90;;;;;;5072625;28;20283;-73
2023/06/06 10:27:39;;;;;;;4.13;3.80;;;21.80;99.90;;;;;;5072572;28;20208;-73
2023/06/06 10:30:10;;;;;;;5.28;3.95;;;22.00;99.90;;;;;;5072718;28;20553;-73
2023/06/06 10:32:45;;;;;;;4.72;4.07;;;22.40;99.40;;;;;;5072453;28;20201;-73
2023/06/06 10:35:14;;;;;;;4.13;3.70;;;21.10;99.90;;;;;;5072584;28;20281;-73
2023/06/06 10:37:41;;;;;;;5.70;3.90;;;21.10;99.90;;;;;;5072438;28;20197;-74
2023/06/06 10:40:10;;;;;;;4.25;3.85;;;21.60;99.90;;;;;;5072370;28;20236;-74
2023/06/06 10:42:40;;;;;;;4.10;3.70;;;21.60;99.90;;;;;;5072519;28;20258;-75
2023/06/06 10:45:08;;;;;;;5.70;4.20;;;20.90;99.90;;;;;;5072478;28;20200;-74
2023/06/06 10:47:38;;;;;;;5.28;4.40;;;20.50;99.90;;;;;;5072257;28;20565;-74
2023/06/06 10:50:22;;;;;;;4.82;3.70;;;20.80;99.90;;;;;;5072419;28;20200;-74
2023/06/06 10:52:51;;;;;;;5.82;4.15;;;20.50;99.90;;;;;;5071994;28;20692;-74
2023/06/06 10:55:18;;;;;;;4.57;3.83;;;20.30;99.90;;;;;;5072247;28;20220;-74
2023/06/06 10:57:54;;;;;;;5.20;4.10;;;20.20;99.90;;;;;;5072395;28;20251;-74
2023/06/06 11:00:23;;;;;;;5.32;3.58;;;20.70;99.90;;;;;;5072279;28;20254;-75
2023/06/06 11:02:50;;;;;;;5.65;3.47;;;21.70;99.90;;;;;;5072155;28;20644;-74
2023/06/06 11:05:18;;;;;;;4.40;3.75;;;22.70;99.90;;;;;;5073623;28;20281;-74
2023/06/06 11:07:49;;;;;;;4.45;3.35;;;23.60;98.90;;;;;;5076075;28;20197;-74
2023/06/06 11:10:20;;;;;;;4.00;3.33;;;23.60;99.30;;;;;;5076006;28;20250;-75
2023/06/06 11:12:49;;;;;;;4.82;3.20;;;24.10;96.50;;;;;;5076005;28;20195;-75
2023/06/06 11:15:26;;;;;;;5.47;3.38;;;24.20;97.20;;;;;;5075611;28;20525;-75
2023/06/06 11:18:01;;;;;;;4.40;3.47;;;24.50;95.40;;;;;;5076042;28;20583;-75
2023/06/06 11:20:28;;;;;;;3.50;3.20;;;24.30;95.30;;;;;;5075759;28;20196;-74
2023/06/06 11:23:01;;;;;;;3.63;3.20;;;23.00;96.60;;;;;;5075763;28;20554;-74
2023/06/06 11:25:30;;;;;;;5.03;3.22;;;21.90;97.70;;;;;;5075698;28;20546;-73
2023/06/06 11:27:57;;;;;;;3.78;3.30;;;21.80;98.90;;;;;;5075489;28;20541;-73
2023/06/06 11:30:30;;;;;;;4.15;3.17;;;21.70;99.60;;;;;;5075503;28;20671;-75
2023/06/06 11:32:57;;;;;;;7.25;3.75;;;22.10;99.80;;;;;;5075655;28;20201;-73
2023/06/06 11:35:24;;;;;;;4.28;2.97;;;22.10;99.20;;;;;;5075505;28;20355;-74
2023/06/06 11:37:51;;;;;;;3.20;2.90;;;22.30;99.00;;;;;;5075521;28;20197;-74
2023/06/06 11:40:18;;;;;;;3.70;2.80;;;23.10;98.20;;;;;;5075374;28;20196;-74
2023/06/06 11:42:45;;;;;;;4.25;2.65;;;24.30;96.30;;;;;;5075314;28;20197;-74
2023/06/06 11:45:15;;;;;;;2.40;2.20;;;26.20;94.40;;;;;;5075561;28;20605;-74
2023/06/06 11:47:43;;;;;;;2.55;2.35;;;25.90;91.20;;;;;;5075188;28;20648;-75
2023/06/06 11:50:11;;;;;;;2.55;2.33;;;25.50;91.20;;;;;;5075332;28;20201;-74
2023/06/06 11:52:45;;;;;;;2.65;2.22;;;24.90;92.50;;;;;;5075111;28;20201;-74
2023/06/06 11:55:11;;;;;;;2.75;2.47;;;24.70;92.30;;;;;;5074996;28;20225;-74
2023/06/06 11:57:39;;;;;;;3.55;2.67;;;25.20;91.20;;;;;;5075332;28;20193;-75
2023/06/06 12:00:12;;;;;;;2.30;2.10;;;24.50;91.80;;;;;;5075053;28;20223;-74
2023/06/06 12:02:40;;;;;;;2.65;2.10;;;26.10;90.70;;;;;;5075068;28;20205;-76
2023/06/06 12:05:18;;;;;;;2.50;2.25;;;27.70;84.30;;;;;;5074979;28;20223;-75
2023/06/06 12:07:45;;;;;;;2.10;1.95;;;26.30;86.40;;;;;;5074856;28;20207;-74
2023/06/06 12:10:12;;;;;;;1.90;1.80;;;25.80;87.50;;;;;;5074967;28;20254;-75
2023/06/06 12:12:44;;;;;;;2.75;2.00;;;25.80;88.30;;;;;;5074952;28;20205;-75
2023/06/06 12:15:11;;;;;;;3.00;2.65;;;25.30;88.90;;;;;;5074797;28;20274;-75
2023/06/06 12:17:38;;;;;;;3.10;2.58;;;25.10;89.10;;;;;;5073940;28;20652;-75
2023/06/06 12:20:06;;;;;;;2.95;2.13;;;24.20;90.60;;;;;;5074609;28;20193;-75
2023/06/06 12:22:35;;;;;;;3.05;2.55;;;25.10;90.60;;;;;;5074800;28;20204;-74
2023/06/06 12:25:03;;;;;;;2.60;2.40;;;24.80;90.60;;;;;;5074808;28;20295;-75
2023/06/06 12:27:36;;;;;;;3.17;2.20;;;24.70;91.10;;;;;;5074670;28;20201;-75
2023/06/06 12:30:04;;;;;;;2.55;2.35;;;24.00;91.30;;;;;;5074672;28;20592;-74
2023/06/06 12:32:31;;;;;;;2.60;2.40;;;23.90;91.60;;;;;;5074414;28;20205;-75
2023/06/06 12:35:02;;;;;;;3.25;2.30;;;23.60;91.50;;;;;;5074316;28;20205;-74
2023/06/06 12:37:41;;;;;;;3.00;2.58;;;24.10;91.90;;;;;;5074703;28;20224;-74
2023/06/06 12:40:15;;;;;;;3.67;2.28;;;23.60;92.60;;;;;;5074452;28;20193;-74
2023/06/06 12:42:42;;;;;;;2.53;2.33;;;23.70;92.10;;;;;;5074273;28;20208;-74
2023/06/06 12:45:10;;;;;;;2.45;2.25;;;24.70;91.80;;;;;;5074223;28;20653;-75